createdAt,value
2022-09-05T00:00:19.898Z,19.65
2022-09-05T00:03:40.344Z,19.60
2022-09-05T00:06:14.360Z,19.83
2022-09-05T00:09:05.713Z,19.89
2022-09-05T00:11:45.885Z,19.98
2022-09-05T00:15:15.896Z,19.48
2022-09-05T00:17:42.461Z,19.19
2022-09-05T00:24:25.766Z,19.10
2022-09-05T00:24:36.715Z,19.77
2022-09-05T00:27:18.244Z,19.79
2022-09-05T00:31:05.876Z,19.66
2022-09-05T00:33:17.607Z,19.65
2022-09-05T00:35:57.260Z,19.42
2022-09-05T00:38:36.853Z,19.17
2022-09-05T00:41:10.472Z,19.25
2022-09-05T00:43:48.042Z,18.93
2022-09-05T00:46:24.235Z,18.92
2022-09-05T00:49:34.069Z,18.99
2022-09-05T00:52:25.934Z,19.13
2022-09-05T00:55:17.164Z,19.12
2022-09-05T00:58:10.112Z,19.51
2022-09-05T01:00:55.242Z,18.87
2022-09-05T01:03:49.991Z,19.36
2022-09-05T01:06:29.915Z,19.02
2022-09-05T01:09:07.582Z,18.99
2022-09-05T01:11:49.422Z,19.29
2022-09-05T01:14:27.701Z,19.12
2022-09-05T01:17:19.020Z,19.24
2022-09-05T01:20:19.103Z,19.35
2022-09-05T01:22:49.273Z,19.38
2022-09-05T01:25:52.454Z,19.27
2022-09-05T01:29:15.048Z,19.17
2022-09-05T01:32:09.308Z,19.40
2022-09-05T01:34:55.152Z,19.28
2022-09-05T01:37:41.106Z,19.12
2022-09-05T01:40:22.339Z,19.40
2022-09-05T01:43:06.199Z,19.10
2022-09-05T01:45:51.681Z,18.55
2022-09-05T01:48:34.856Z,18.13
2022-09-05T01:51:44.980Z,18.40
2022-09-05T01:54:31.380Z,18.20
2022-09-05T01:57:47.689Z,18.56
2022-09-05T02:00:55.904Z,19.00
2022-09-05T02:03:50.614Z,18.87
2022-09-05T02:06:37.549Z,18.34
2022-09-05T02:09:11.052Z,18.67
2022-09-05T02:11:45.604Z,18.28
2022-09-05T02:14:43.878Z,18.12
2022-09-05T02:17:44.757Z,18.50
2022-09-05T02:20:25.369Z,18.84
2022-09-05T02:23:31.002Z,18.92
2022-09-05T02:26:06.066Z,18.32
2022-09-05T02:29:02.489Z,18.40
2022-09-05T02:31:48.557Z,18.89
2022-09-05T02:34:41.830Z,18.87
2022-09-05T02:37:15.248Z,18.86
2022-09-05T02:45:03.258Z,18.66
2022-09-05T02:45:12.048Z,18.73
2022-09-05T02:46:19.367Z,18.10
2022-09-05T02:49:09.047Z,18.65
2022-09-05T02:57:26.916Z,18.33
2022-09-05T02:57:37.222Z,18.62
2022-09-05T02:58:05.673Z,18.61
2022-09-05T03:00:45.381Z,18.34
2022-09-05T03:03:27.193Z,18.38
2022-09-05T03:06:13.440Z,18.28
2022-09-05T03:09:25.009Z,18.08
2022-09-05T03:11:59.178Z,18.19
2022-09-05T03:14:39.424Z,18.15
2022-09-05T03:17:10.672Z,18.56
2022-09-05T03:20:09.376Z,18.44
2022-09-05T03:23:19.582Z,18.28
2022-09-05T03:26:27.283Z,18.10
2022-09-05T03:29:08.458Z,17.77
2022-09-05T03:31:58.197Z,17.87
2022-09-05T03:35:08.711Z,17.97
2022-09-05T03:37:50.909Z,17.82
2022-09-05T03:40:36.671Z,17.70
2022-09-05T03:43:31.151Z,18.15
2022-09-05T03:46:12.357Z,18.15
2022-09-05T03:50:07.434Z,18.53
2022-09-05T03:57:08.978Z,18.05
2022-09-05T03:57:16.932Z,18.05
2022-09-05T03:58:42.031Z,18.13
2022-09-05T04:04:10.849Z,18.20
2022-09-05T04:08:10.116Z,18.16
2022-09-05T04:08:19.556Z,18.26
2022-09-05T04:10:59.177Z,18.46
2022-09-05T04:13:34.013Z,17.79
2022-09-05T04:16:13.831Z,18.04
2022-09-05T04:18:46.512Z,17.89
2022-09-05T04:21:24.168Z,17.56
2022-09-05T04:24:12.990Z,17.52
2022-09-05T04:27:00.066Z,17.63
2022-09-05T04:29:43.344Z,17.53
2022-09-05T04:32:22.512Z,17.62
2022-09-05T04:35:25.656Z,17.50
2022-09-05T04:38:06.430Z,17.30
2022-09-05T04:40:37.534Z,17.41
2022-09-05T04:43:29.504Z,17.92
2022-09-05T04:46:19.595Z,17.83
2022-09-05T04:48:55.160Z,17.92
2022-09-05T04:51:32.042Z,18.19
2022-09-05T04:54:20.814Z,18.44
2022-09-05T04:56:52.581Z,18.20
2022-09-05T05:02:58.326Z,18.09
2022-09-05T05:06:00.292Z,17.90
2022-09-05T05:06:15.296Z,18.20
2022-09-05T05:08:17.180Z,18.31
2022-09-05T05:17:59.310Z,18.19
2022-09-05T05:18:11.986Z,18.59
2022-09-05T05:18:12.193Z,18.83
2022-09-05T05:20:41.516Z,18.79
2022-09-05T05:23:07.521Z,18.52
2022-09-05T05:25:52.078Z,18.71
2022-09-05T05:28:22.808Z,18.77
2022-09-05T05:31:01.618Z,18.86
2022-09-05T05:33:36.718Z,18.89
2022-09-05T05:36:09.874Z,19.26
2022-09-05T05:38:45.914Z,19.24
2022-09-05T05:41:20.179Z,19.45
2022-09-05T05:43:51.991Z,19.64
2022-09-05T05:46:31.866Z,19.56
2022-09-05T05:49:12.131Z,19.83
2022-09-05T05:52:19.117Z,19.92
2022-09-05T05:55:28.491Z,19.91
2022-09-05T05:57:58.311Z,20.10
2022-09-05T06:00:58.275Z,20.34
2022-09-05T06:04:09.117Z,20.26
2022-09-05T06:07:16.452Z,20.57
2022-09-05T06:14:51.352Z,20.67
2022-09-05T06:14:57.886Z,20.64
2022-09-05T06:17:05.299Z,20.67
2022-09-05T06:22:07.008Z,20.48
2022-09-05T06:23:32.254Z,20.55
2022-09-05T06:26:20.748Z,20.55
2022-09-05T06:29:21.259Z,20.87
2022-09-05T06:31:59.906Z,20.92
2022-09-05T06:34:49.326Z,20.83
2022-09-05T06:37:44.791Z,20.77
2022-09-05T06:40:39.361Z,21.05
2022-09-05T06:43:41.807Z,21.01
2022-09-05T06:46:28.712Z,21.17
2022-09-05T06:49:37.281Z,21.35
2022-09-05T06:52:28.658Z,21.57
2022-09-05T06:55:23.036Z,21.88
2022-09-05T06:58:10.635Z,21.84
2022-09-05T07:00:58.670Z,21.94
2022-09-05T07:03:42.886Z,21.99
2022-09-05T07:06:48.119Z,22.16
2022-09-05T07:09:33.842Z,21.97
2022-09-05T07:12:11.693Z,22.49
2022-09-05T07:15:20.995Z,22.52
2022-09-05T07:18:10.452Z,22.54
2022-09-05T07:21:16.363Z,22.73
2022-09-05T07:24:07.194Z,22.73
2022-09-05T07:26:54.115Z,23.15
2022-09-05T07:29:29.943Z,23.25
2022-09-05T07:32:10.612Z,23.47
2022-09-05T07:34:40.236Z,23.63
2022-09-05T07:37:20.057Z,23.65
2022-09-05T07:39:58.460Z,23.83
2022-09-05T07:42:44.492Z,23.91
2022-09-05T07:45:25.442Z,24.14
2022-09-05T07:48:00.622Z,24.28
2022-09-05T07:51:30.066Z,24.49
2022-09-05T07:56:58.566Z,24.58
2022-09-05T07:57:06.274Z,24.78
2022-09-05T07:59:13.682Z,24.84
2022-09-05T08:01:57.067Z,25.12
2022-09-05T08:04:42.077Z,24.93
2022-09-05T08:11:25.743Z,25.45
2022-09-05T08:16:50.005Z,25.55
2022-09-05T08:20:45.165Z,25.90
2022-09-05T08:32:18.066Z,26.44
2022-09-05T08:40:42.829Z,26.77
2022-09-05T08:47:45.630Z,26.90
2022-09-05T08:55:08.019Z,27.51
2022-09-05T09:02:45.439Z,27.84
2022-09-05T09:07:42.400Z,28.12
2022-09-05T09:08:52.542Z,28.19
2022-09-05T09:16:18.520Z,28.25
2022-09-05T09:20:16.431Z,28.28
2022-09-05T09:27:04.180Z,28.39
2022-09-05T09:30:17.420Z,28.31
2022-09-05T09:32:58.892Z,28.30
2022-09-05T09:35:55.043Z,28.15
2022-09-05T09:39:38.574Z,28.34
2022-09-05T09:42:50.657Z,28.42
2022-09-05T09:46:01.671Z,28.35
2022-09-05T09:49:05.099Z,28.76
2022-09-05T09:56:12.138Z,29.05
2022-09-05T09:59:19.598Z,28.82
2022-09-05T10:08:03.818Z,29.01
2022-09-05T10:10:43.931Z,29.19
2022-09-05T10:10:54.226Z,28.78
2022-09-05T11:39:53.477Z,30.83
2022-09-05T11:39:54.894Z,30.62
2022-09-05T11:41:18.036Z,30.58
2022-09-05T11:44:24.442Z,30.32
2022-09-05T11:47:29.365Z,30.13
2022-09-05T11:50:12.649Z,30.53
2022-09-05T11:52:40.850Z,30.43
2022-09-05T11:55:39.496Z,30.59
2022-09-05T11:58:45.402Z,30.56
2022-09-05T12:01:38.225Z,30.19
2022-09-05T12:04:31.501Z,30.10
2022-09-05T12:07:31.724Z,30.00
2022-09-05T12:10:06.311Z,30.26
2022-09-05T12:13:29.160Z,30.18
2022-09-05T12:16:08.584Z,30.35
2022-09-05T12:18:55.272Z,30.76
2022-09-05T12:21:38.353Z,30.98
2022-09-05T12:25:24.182Z,31.06
2022-09-05T12:27:44.542Z,30.91
2022-09-05T12:30:23.230Z,30.50
2022-09-05T12:36:01.799Z,30.43
2022-09-05T12:40:53.899Z,30.48
2022-09-05T12:40:57.647Z,30.00
2022-09-05T12:42:13.869Z,29.97
2022-09-05T12:45:10.007Z,30.01
2022-09-05T12:48:11.791Z,29.96
2022-09-05T12:51:08.183Z,29.68
2022-09-05T12:53:47.987Z,30.03
2022-09-05T13:01:31.916Z,30.24
2022-09-05T13:02:57.471Z,30.63
2022-09-05T13:03:11.484Z,30.55
2022-09-05T13:05:27.109Z,30.40
2022-09-05T13:07:58.407Z,30.43
2022-09-05T13:14:48.588Z,30.51
2022-09-05T13:15:03.005Z,30.28
2022-09-05T13:16:23.651Z,30.35
2022-09-05T13:19:02.382Z,30.36
2022-09-05T13:21:31.383Z,30.26
2022-09-05T13:24:12.378Z,30.12
2022-09-05T13:26:56.234Z,30.30
2022-09-05T13:29:30.371Z,30.33
2022-09-05T13:37:55.321Z,30.60
2022-09-05T13:38:15.037Z,30.74
2022-09-05T13:38:47.708Z,30.88
2022-09-05T13:41:27.862Z,31.27
2022-09-05T13:44:25.685Z,31.01
2022-09-05T13:46:58.139Z,31.13
2022-09-05T13:49:32.336Z,31.37
2022-09-05T13:52:16.637Z,31.10
2022-09-05T13:54:51.828Z,31.33
2022-09-05T13:57:32.197Z,31.43
2022-09-05T14:00:18.714Z,31.48
2022-09-05T14:03:37.470Z,31.63
2022-09-05T14:06:46.713Z,31.23
2022-09-05T14:09:39.357Z,31.28
2022-09-05T14:12:37.213Z,31.46
2022-09-05T14:15:38.289Z,31.20
2022-09-05T14:18:30.470Z,31.41
2022-09-05T14:21:19.332Z,30.88
2022-09-05T14:24:04.663Z,30.74
2022-09-05T14:27:06.695Z,30.91
2022-09-05T14:29:52.580Z,30.69
2022-09-05T14:37:36.411Z,30.43
2022-09-05T14:37:41.132Z,30.76
2022-09-05T14:38:16.224Z,31.00
2022-09-05T14:41:05.024Z,31.04
2022-09-05T14:44:01.473Z,30.95
2022-09-05T14:46:32.720Z,31.11
2022-09-05T14:49:18.348Z,31.37
2022-09-05T14:51:48.367Z,31.28
2022-09-05T15:02:36.676Z,31.23
2022-09-05T15:02:49.757Z,31.42
2022-09-05T15:03:03.556Z,31.56
2022-09-05T15:05:40.145Z,31.69
2022-09-05T15:09:13.501Z,31.65
2022-09-05T16:10:30.813Z,29.37
2022-09-05T17:29:36.096Z,27.78
2022-09-05T17:29:43.224Z,27.78
2022-09-05T17:31:51.767Z,27.06
2022-09-05T17:35:29.337Z,26.90
2022-09-05T17:38:52.666Z,27.42
2022-09-05T17:46:12.086Z,27.59
2022-09-05T17:49:38.775Z,27.79
2022-09-05T18:04:15.845Z,26.89
2022-09-05T18:07:44.193Z,27.33
2022-09-05T18:11:25.097Z,27.29
2022-09-05T18:15:09.552Z,27.16
2022-09-05T18:18:43.641Z,26.83
2022-09-05T18:21:30.283Z,26.68
2022-09-05T18:29:14.410Z,26.22
2022-09-05T18:32:18.450Z,24.89
2022-09-05T18:35:50.729Z,24.16
2022-09-05T18:39:37.140Z,23.97
2022-09-05T18:42:34.721Z,24.22
2022-09-05T18:45:52.429Z,24.32
2022-09-05T18:49:02.286Z,25.11
2022-09-05T18:52:23.833Z,25.31
2022-09-05T18:56:12.553Z,25.02
2022-09-05T18:58:35.835Z,24.62
2022-09-05T19:03:03.653Z,25.14
2022-09-05T19:05:16.042Z,24.95
2022-09-05T19:08:01.955Z,24.42
2022-09-05T19:11:53.581Z,24.75
2022-09-05T19:14:39.780Z,24.39
2022-09-05T19:18:22.818Z,24.18
2022-09-05T19:21:22.588Z,24.10
2022-09-05T19:24:25.562Z,23.29
2022-09-05T19:29:01.348Z,23.12
2022-09-05T19:36:49.643Z,23.41
2022-09-05T19:37:08.028Z,23.36
2022-09-05T19:37:26.229Z,23.24
2022-09-05T19:47:10.976Z,23.37
2022-09-05T19:47:40.059Z,23.75
2022-09-05T19:47:43.033Z,23.35
2022-09-05T19:50:29.219Z,23.54
2022-09-05T19:53:46.218Z,23.51
2022-09-05T19:56:58.247Z,24.04
2022-09-05T19:59:36.229Z,23.48
2022-09-05T20:03:00.603Z,23.94
2022-09-05T20:08:52.850Z,23.40
2022-09-05T20:12:24.183Z,23.29
2022-09-05T20:14:59.732Z,23.37
2022-09-05T20:18:44.684Z,23.23
2022-09-05T20:25:49.169Z,23.35
2022-09-05T20:29:54.074Z,23.49
2022-09-05T20:33:00.372Z,23.56
2022-09-05T20:43:09.759Z,23.32
2022-09-05T20:43:29.179Z,23.47
2022-09-05T20:54:14.212Z,22.50
2022-09-05T20:54:28.650Z,22.64
2022-09-05T20:55:41.794Z,22.66
2022-09-05T20:58:31.396Z,22.55
2022-09-05T21:01:46.708Z,22.54
2022-09-05T21:05:31.777Z,22.60
2022-09-05T21:08:40.298Z,22.58
2022-09-05T21:12:00.056Z,22.33
2022-09-05T21:14:38.570Z,22.66
2022-09-05T21:17:58.360Z,23.09
2022-09-05T21:24:17.797Z,23.15
2022-09-05T21:27:26.569Z,23.11
2022-09-05T21:31:16.272Z,22.93
2022-09-05T21:34:44.721Z,22.61
2022-09-05T21:37:06.547Z,22.21
2022-09-05T21:40:08.716Z,21.67
2022-09-05T21:47:33.232Z,21.70
2022-09-05T21:47:38.863Z,21.62
2022-09-05T21:49:46.493Z,22.19
2022-09-05T21:52:29.045Z,22.34
2022-09-05T21:59:19.544Z,22.33
2022-09-05T22:24:32.715Z,22.08
2022-09-05T22:27:56.021Z,22.21
2022-09-05T22:31:33.205Z,21.92
2022-09-05T22:35:28.554Z,22.06
2022-09-05T22:38:22.468Z,22.11
2022-09-05T22:42:57.603Z,22.33
2022-09-05T22:46:33.336Z,22.31
2022-09-05T22:52:54.773Z,22.26
2022-09-05T22:56:06.050Z,22.43
2022-09-05T23:03:21.195Z,22.05
2022-09-05T23:07:29.545Z,21.82
2022-09-05T23:10:07.746Z,21.97
2022-09-05T23:29:34.104Z,22.11
2022-09-05T23:33:39.472Z,21.94
2022-09-05T23:37:37.478Z,21.89
2022-09-05T23:41:03.165Z,22.05
2022-09-05T23:45:21.699Z,22.38
2022-09-05T23:47:45.381Z,22.66
2022-09-05T23:51:02.468Z,22.45
2022-09-05T23:54:14.496Z,22.65
2022-09-05T23:57:30.922Z,22.26
